Terminal Aerodrome Forecast
Issued by NWS Jacksonville, FL

Home | Current Version | Previous Version | Text Only | Print | Product List | Glossary On
Versions: 1 2 3 4 5 6 7 8 9 10 11 12 13 14 15 16 17 18 19 20 21 22 23 24 25 26 27 28 29 30
000
FTUS42 KJAX 282205 AAB
TAFJAX
TAF AMD
KJAX 282205Z 2822/0118 03015KT 3SM -DZ BR OVC005
      TEMPO 2822/0102 2SM -RA BR
     FM010200 03010G15KT 3SM -DZ BR OVC004
      TEMPO 0102/0106 1SM -RA BR OVC001
     FM010600 03006KT 3SM -DZ BR OVC003
      TEMPO 0106/0110 1/2SM -RA FG OVC001
     FM011000 03005KT 2SM -DZ BR OVC002
      TEMPO 0110/0114 1/4SM -RA FG OVC001
     FM011400 06008G12KT 5SM -RA BR OVC004 PROB30 0114/0118 3SM RA
      BR OVC002=

USA.gov is the U.S. government's official web portal to all federal, state and local government web resources and services.